createdAt,value
2023-03-29T00:01:58.072Z,6.67
2023-03-29T00:04:28.733Z,4.20
2023-03-29T00:07:04.330Z,6.40
2023-03-29T00:09:41.039Z,5.87
2023-03-29T00:12:07.760Z,5.67
2023-03-29T00:14:34.527Z,9.73
2023-03-29T00:17:01.380Z,17.80
2023-03-29T00:19:29.024Z,5.30
2023-03-29T00:22:00.543Z,4.53
2023-03-29T00:24:30.394Z,7.17
2023-03-29T00:26:57.533Z,8.00
2023-03-29T00:29:33.967Z,10.03
2023-03-29T00:32:02.914Z,4.20
2023-03-29T00:34:59.522Z,4.40
2023-03-29T00:37:26.956Z,5.10
2023-03-29T00:39:53.730Z,12.07
2023-03-29T00:42:29.258Z,3.93
2023-03-29T00:44:57.697Z,5.83
2023-03-29T00:48:01.286Z,8.50
2023-03-29T00:50:39.160Z,8.30
2023-03-29T00:53:08.859Z,6.67
2023-03-29T00:55:42.985Z,7.00
2023-03-29T00:58:17.565Z,9.10
2023-03-29T01:04:06.912Z,6.10
2023-03-29T01:06:35.072Z,6.40
2023-03-29T01:09:10.387Z,5.07
2023-03-29T01:11:40.157Z,6.40
2023-03-29T01:14:10.834Z,6.60
2023-03-29T01:16:41.587Z,6.47
2023-03-29T01:19:10.683Z,5.30
2023-03-29T01:21:44.817Z,5.27
2023-03-29T01:24:50.619Z,4.00
2023-03-29T01:27:22.844Z,4.43
2023-03-29T01:30:03.445Z,6.10
2023-03-29T01:32:35.360Z,5.80
2023-03-29T01:35:10.166Z,5.83
2023-03-29T01:40:35.372Z,6.70
2023-03-29T01:43:24.571Z,6.10
2023-03-29T01:46:14.638Z,5.13
2023-03-29T01:48:53.604Z,5.73
2023-03-29T01:51:35.436Z,5.80
2023-03-29T01:54:39.411Z,5.57
2023-03-29T01:57:07.104Z,6.70
2023-03-29T01:59:42.304Z,5.80
2023-03-29T02:02:12.528Z,8.00
2023-03-29T02:04:44.744Z,5.40
2023-03-29T02:07:13.249Z,4.60
2023-03-29T02:09:41.243Z,5.57
2023-03-29T02:12:09.732Z,6.80
2023-03-29T02:14:45.551Z,8.17
2023-03-29T02:17:31.089Z,7.70
2023-03-29T02:20:22.456Z,6.43
2023-03-29T02:23:41.035Z,6.10
2023-03-29T02:26:08.905Z,6.13
2023-03-29T02:28:36.890Z,5.70
2023-03-29T02:31:27.149Z,7.67
2023-03-29T02:34:43.734Z,7.30
2023-03-29T02:37:20.203Z,5.87
2023-03-29T02:39:49.620Z,6.10
2023-03-29T02:42:18.138Z,6.17
2023-03-29T02:44:50.267Z,8.90
2023-03-29T02:47:21.045Z,7.90
2023-03-29T02:49:47.846Z,6.60
2023-03-29T02:52:33.589Z,7.43
2023-03-29T02:55:03.758Z,6.37
2023-03-29T02:57:32.372Z,8.20
2023-03-29T03:00:00.148Z,6.83
2023-03-29T03:02:35.645Z,6.47
2023-03-29T03:05:02.692Z,4.80
2023-03-29T03:07:29.838Z,6.90
2023-03-29T03:10:06.039Z,7.73
2023-03-29T03:12:32.769Z,9.07
2023-03-29T03:14:59.639Z,9.10
2023-03-29T03:17:33.600Z,7.70
2023-03-29T03:20:04.767Z,7.17
2023-03-29T03:22:32.391Z,7.63
2023-03-29T03:25:19.547Z,7.30
2023-03-29T03:27:53.182Z,4.97
2023-03-29T03:30:22.439Z,6.17
2023-03-29T03:33:07.942Z,9.87
2023-03-29T03:35:56.943Z,8.93
2023-03-29T03:38:24.098Z,7.57
2023-03-29T03:40:56.903Z,6.40
2023-03-29T03:46:19.102Z,7.50
2023-03-29T03:48:47.062Z,5.20
2023-03-29T03:51:21.493Z,6.20
2023-03-29T03:53:49.169Z,7.57
2023-03-29T03:56:34.199Z,6.93
2023-03-29T03:59:04.717Z,5.80
2023-03-29T04:02:00.728Z,7.00
2023-03-29T04:04:28.710Z,6.17
2023-03-29T04:07:17.900Z,5.80
2023-03-29T04:10:07.010Z,7.43
2023-03-29T04:13:04.985Z,7.33
2023-03-29T04:15:43.000Z,5.70
2023-03-29T04:18:12.543Z,7.87
2023-03-29T04:20:43.935Z,5.70
2023-03-29T04:23:15.966Z,6.33
2023-03-29T04:25:44.447Z,6.50
2023-03-29T04:28:46.672Z,5.90
2023-03-29T04:31:30.533Z,5.47
2023-03-29T04:34:29.425Z,5.63
2023-03-29T04:36:59.154Z,5.63
2023-03-29T04:39:33.035Z,6.47
2023-03-29T04:42:02.917Z,8.10
2023-03-29T04:44:33.588Z,7.13
2023-03-29T04:47:07.960Z,8.77
2023-03-29T04:49:52.019Z,10.20
2023-03-29T04:52:37.020Z,5.83
2023-03-29T04:55:06.810Z,5.73
2023-03-29T04:58:04.908Z,5.43
2023-03-29T05:00:33.761Z,5.13
2023-03-29T05:03:00.576Z,5.83
2023-03-29T05:05:33.278Z,6.13
2023-03-29T05:08:01.898Z,6.67
2023-03-29T05:10:37.123Z,5.90
2023-03-29T05:13:04.118Z,7.53
2023-03-29T05:15:31.923Z,5.10
2023-03-29T05:17:59.285Z,7.10
2023-03-29T05:20:36.099Z,8.43
2023-03-29T05:23:03.272Z,7.47
2023-03-29T05:26:15.923Z,7.67
2023-03-29T05:28:46.430Z,8.40
2023-03-29T05:32:12.149Z,8.40
2023-03-29T05:34:39.886Z,7.20
2023-03-29T05:37:10.277Z,8.17
2023-03-29T05:39:49.029Z,6.50
2023-03-29T05:42:28.026Z,6.90
2023-03-29T05:45:01.200Z,9.90
2023-03-29T05:47:28.740Z,10.60
2023-03-29T05:49:58.496Z,7.00
2023-03-29T05:52:25.264Z,8.23
2023-03-29T05:54:52.064Z,8.97
2023-03-29T05:57:19.717Z,10.10
2023-03-29T06:00:25.793Z,7.60
2023-03-29T06:03:14.130Z,6.30
2023-03-29T06:05:49.980Z,8.13
2023-03-29T06:08:28.940Z,6.03
2023-03-29T06:11:30.515Z,6.30
2023-03-29T06:14:13.883Z,4.23
2023-03-29T06:16:50.086Z,6.33
2023-03-29T06:19:19.385Z,4.90
2023-03-29T06:21:49.877Z,7.90
2023-03-29T06:27:09.636Z,11.73
2023-03-29T06:29:39.581Z,6.63
2023-03-29T06:32:06.523Z,7.10
2023-03-29T06:35:06.882Z,8.50
2023-03-29T06:37:50.405Z,6.33
2023-03-29T06:40:34.389Z,6.50
2023-03-29T06:43:01.683Z,9.70
2023-03-29T06:45:31.385Z,7.10
2023-03-29T06:48:25.427Z,7.30
2023-03-29T06:50:53.471Z,6.00
2023-03-29T06:53:30.778Z,5.77
2023-03-29T06:56:19.692Z,7.17
2023-03-29T06:59:04.666Z,6.50
2023-03-29T07:02:02.762Z,6.53
2023-03-29T07:04:45.352Z,11.00
2023-03-29T07:07:20.853Z,5.47
2023-03-29T07:10:01.836Z,6.20
2023-03-29T07:12:50.357Z,5.83
2023-03-29T07:15:30.070Z,5.97
2023-03-29T07:18:18.849Z,5.00
2023-03-29T07:20:54.536Z,6.73
2023-03-29T07:23:21.441Z,6.43
2023-03-29T07:25:48.808Z,5.83
2023-03-29T07:28:16.585Z,5.40
2023-03-29T07:30:47.019Z,6.73
2023-03-29T07:33:17.284Z,5.97
2023-03-29T07:35:56.368Z,7.30
2023-03-29T07:38:23.682Z,8.10
2023-03-29T07:41:05.306Z,7.07
2023-03-29T07:43:44.142Z,6.13
2023-03-29T07:46:12.570Z,9.97
2023-03-29T07:48:40.717Z,7.00
2023-03-29T07:51:10.184Z,7.23
2023-03-29T07:53:45.053Z,7.57
2023-03-29T07:56:30.679Z,8.23
2023-03-29T07:59:27.328Z,8.17
2023-03-29T08:02:10.984Z,12.23
2023-03-29T08:04:41.106Z,7.70
2023-03-29T08:07:24.468Z,6.90
2023-03-29T08:10:27.776Z,6.90
2023-03-29T08:12:54.544Z,10.83
2023-03-29T08:15:33.848Z,14.50
2023-03-29T08:18:00.642Z,8.80
2023-03-29T08:20:27.578Z,8.30
2023-03-29T08:23:06.403Z,9.13
2023-03-29T08:25:53.724Z,14.60
2023-03-29T08:28:20.423Z,13.13
2023-03-29T08:30:51.139Z,7.83
2023-03-29T08:33:21.463Z,9.03
2023-03-29T08:36:22.517Z,16.97
2023-03-29T08:38:51.569Z,9.83
2023-03-29T08:41:32.273Z,10.90
2023-03-29T08:44:21.435Z,10.17
2023-03-29T08:47:08.386Z,8.57
2023-03-29T08:49:49.484Z,7.97
2023-03-29T08:52:35.672Z,8.40
2023-03-29T08:55:40.033Z,10.43
2023-03-29T08:58:25.851Z,9.13
2023-03-29T09:01:06.694Z,8.73
2023-03-29T09:03:49.203Z,8.83
2023-03-29T09:06:26.522Z,8.77
2023-03-29T09:09:09.134Z,9.80
2023-03-29T09:12:16.625Z,10.33
2023-03-29T09:15:06.715Z,7.60
2023-03-29T09:17:52.260Z,8.40
2023-03-29T09:20:47.495Z,12.47
2023-03-29T09:23:42.841Z,7.53
2023-03-29T09:26:23.887Z,8.70
2023-03-29T09:29:45.350Z,12.60
2023-03-29T09:32:23.369Z,8.07
2023-03-29T09:35:03.679Z,9.43
2023-03-29T09:37:37.279Z,8.40
2023-03-29T09:40:31.708Z,9.63
2023-03-29T09:43:09.616Z,8.60
2023-03-29T09:45:50.164Z,14.17
2023-03-29T09:48:49.658Z,8.00
2023-03-29T09:51:15.639Z,10.03
2023-03-29T09:53:45.458Z,11.57
2023-03-29T09:56:21.495Z,9.00
2023-03-29T09:58:58.901Z,9.83
2023-03-29T10:01:46.724Z,9.63
2023-03-29T10:04:16.631Z,11.53
2023-03-29T10:07:20.676Z,8.13
2023-03-29T10:09:58.366Z,12.73
2023-03-29T10:12:25.437Z,7.53
2023-03-29T10:14:54.244Z,10.73
2023-03-29T10:17:25.913Z,11.67
2023-03-29T10:20:04.427Z,9.83
2023-03-29T10:22:56.251Z,8.53
2023-03-29T10:25:26.641Z,10.20
2023-03-29T10:27:56.540Z,10.63
2023-03-29T10:30:24.526Z,13.30
2023-03-29T10:32:57.982Z,6.93
2023-03-29T10:35:44.424Z,11.43
2023-03-29T10:38:29.960Z,8.63
2023-03-29T11:08:13.721Z,6.60
2023-03-29T11:10:43.407Z,10.00
2023-03-29T11:13:58.740Z,7.60
2023-03-29T11:16:42.720Z,9.37
2023-03-29T11:19:44.771Z,12.20
2023-03-29T11:23:06.803Z,13.80
2023-03-29T11:25:45.765Z,9.07
2023-03-29T11:28:28.873Z,10.30
2023-03-29T11:31:03.562Z,10.70
2023-03-29T11:34:04.586Z,9.90
2023-03-29T11:36:37.366Z,10.87
2023-03-29T11:39:16.105Z,9.10
2023-03-29T11:41:47.370Z,11.40
2023-03-29T11:44:32.198Z,11.00
2023-03-29T11:47:29.858Z,8.83
2023-03-29T11:50:10.152Z,10.13
2023-03-29T11:52:42.305Z,11.87
2023-03-29T11:55:44.861Z,9.67
2023-03-29T11:58:31.486Z,15.83
2023-03-29T12:01:13.986Z,10.50
2023-03-29T12:03:47.990Z,12.87
2023-03-29T12:06:29.466Z,12.23
2023-03-29T12:13:49.019Z,12.80
2023-03-29T12:16:27.980Z,11.77
2023-03-29T12:19:19.017Z,12.50
2023-03-29T12:25:52.317Z,17.60
2023-03-29T12:29:07.275Z,14.13
2023-03-29T12:32:34.761Z,10.57
2023-03-29T12:35:27.827Z,11.43
2023-03-29T12:42:21.168Z,13.77
2023-03-29T12:45:35.149Z,12.57
2023-03-29T12:48:02.083Z,9.67
2023-03-29T12:50:34.622Z,13.67
2023-03-29T12:53:22.893Z,16.57
2023-03-29T12:55:55.112Z,11.83
2023-03-29T12:58:42.892Z,13.47
2023-03-29T13:05:28.543Z,13.90
2023-03-29T13:08:20.087Z,15.93
2023-03-29T13:11:25.832Z,10.10
2023-03-29T13:22:05.798Z,13.67
2023-03-29T13:25:02.234Z,15.07
2023-03-29T13:27:31.841Z,13.33
2023-03-29T13:30:26.710Z,12.27
2023-03-29T13:33:11.696Z,15.63
2023-03-29T13:36:02.790Z,16.60
2023-03-29T13:38:31.984Z,21.40
2023-03-29T13:41:07.912Z,13.10
2023-03-29T13:43:44.639Z,10.40
2023-03-29T13:46:23.028Z,11.70
2023-03-29T13:48:55.220Z,12.40
2023-03-29T13:51:46.841Z,11.70
2023-03-29T13:54:32.299Z,13.67
2023-03-29T13:57:20.974Z,9.33
2023-03-29T13:59:57.041Z,10.53
2023-03-29T14:02:47.374Z,11.90
2023-03-29T14:05:22.134Z,12.87
2023-03-29T14:12:25.520Z,17.93
2023-03-29T14:16:22.925Z,36.23
2023-03-29T14:26:35.991Z,11.80
2023-03-29T14:29:36.950Z,14.67
2023-03-29T14:32:10.920Z,14.70
2023-03-29T14:35:10.048Z,17.90
2023-03-29T14:43:53.193Z,25.87
2023-03-29T14:46:29.275Z,24.97
2023-03-29T14:49:48.134Z,29.40
2023-03-29T14:52:15.333Z,21.33
2023-03-29T14:55:47.674Z,21.27
2023-03-29T14:58:25.032Z,25.77
2023-03-29T15:00:52.809Z,17.90
2023-03-29T15:03:22.996Z,20.80
2023-03-29T15:06:02.067Z,18.70
2023-03-29T15:08:42.707Z,23.30
2023-03-29T15:11:23.272Z,17.37
2023-03-29T15:13:52.685Z,19.27
2023-03-29T15:16:26.238Z,15.73
2023-03-29T15:18:53.123Z,13.83
2023-03-29T15:21:21.376Z,17.30
2023-03-29T15:23:57.563Z,17.77
2023-03-29T15:26:40.900Z,16.80
2023-03-29T15:29:32.594Z,16.57
2023-03-29T15:32:04.225Z,17.07
2023-03-29T15:34:32.962Z,16.90
2023-03-29T15:37:02.871Z,19.97
2023-03-29T15:39:32.910Z,18.73
2023-03-29T15:42:09.060Z,16.87
2023-03-29T15:44:37.874Z,17.40
2023-03-29T15:47:13.232Z,21.20
2023-03-29T15:49:40.041Z,17.03
2023-03-29T15:52:06.870Z,17.83
2023-03-29T15:54:33.849Z,18.40
2023-03-29T15:57:04.459Z,24.27
2023-03-29T15:59:35.094Z,19.03
2023-03-29T16:02:04.851Z,17.20
2023-03-29T16:04:32.307Z,16.50
2023-03-29T16:07:11.114Z,17.10
2023-03-29T16:09:41.896Z,17.07
2023-03-29T16:12:10.032Z,17.33
2023-03-29T16:14:43.516Z,15.23
2023-03-29T16:17:38.164Z,16.00
2023-03-29T16:20:31.924Z,16.03
2023-03-29T16:22:56.638Z,16.53
2023-03-29T16:26:00.937Z,20.30
2023-03-29T16:28:59.943Z,18.03
2023-03-29T16:34:22.962Z,15.50
2023-03-29T16:37:22.205Z,16.23
2023-03-29T16:39:51.946Z,17.67
2023-03-29T16:42:18.637Z,18.07
2023-03-29T16:44:45.641Z,17.47
2023-03-29T16:47:15.037Z,15.67
2023-03-29T16:49:43.752Z,17.50
2023-03-29T16:52:12.382Z,16.83
2023-03-29T16:54:38.969Z,15.73
2023-03-29T16:57:07.226Z,17.23
2023-03-29T16:59:34.063Z,16.20
2023-03-29T17:02:03.561Z,13.37
2023-03-29T17:04:33.628Z,14.77
2023-03-29T17:07:12.286Z,24.20
2023-03-29T17:09:40.941Z,16.77
2023-03-29T17:12:07.804Z,20.13
2023-03-29T17:14:42.155Z,18.43
2023-03-29T17:17:08.872Z,19.57
2023-03-29T17:19:38.278Z,20.07
2023-03-29T17:22:14.014Z,17.60
2023-03-29T17:24:55.555Z,24.17
2023-03-29T17:27:22.334Z,23.03
2023-03-29T17:29:49.071Z,23.03
2023-03-29T17:32:16.097Z,22.17
2023-03-29T17:34:46.346Z,17.40
2023-03-29T17:37:17.471Z,24.30
2023-03-29T17:39:46.123Z,21.83
2023-03-29T17:42:19.473Z,20.30
2023-03-29T17:44:46.921Z,23.23
2023-03-29T17:47:13.605Z,25.50
2023-03-29T17:49:42.619Z,22.33
2023-03-29T17:52:16.558Z,19.90
2023-03-29T17:54:43.211Z,21.17
2023-03-29T17:57:09.982Z,22.57
2023-03-29T17:59:48.221Z,21.63
2023-03-29T18:02:20.660Z,19.90
2023-03-29T18:07:58.809Z,19.83
2023-03-29T18:10:25.538Z,19.80
2023-03-29T18:12:56.166Z,23.40
2023-03-29T18:15:34.199Z,24.97
2023-03-29T18:18:01.454Z,19.37
2023-03-29T18:20:28.248Z,20.97
2023-03-29T18:23:04.335Z,19.70
2023-03-29T18:25:31.068Z,19.23
2023-03-29T18:28:00.860Z,20.40
2023-03-29T18:30:33.794Z,18.53
2023-03-29T18:33:00.667Z,18.53
2023-03-29T18:35:27.490Z,17.60
2023-03-29T18:38:05.223Z,18.30
2023-03-29T18:40:32.112Z,14.73
2023-03-29T18:42:58.935Z,20.93
2023-03-29T18:48:31.427Z,21.07
2023-03-29T18:51:18.408Z,20.10
2023-03-29T18:53:48.502Z,19.00
2023-03-29T18:56:15.381Z,18.43
2023-03-29T18:58:47.454Z,18.43
2023-03-29T19:01:20.776Z,18.17
2023-03-29T19:03:48.161Z,18.83
2023-03-29T19:06:15.223Z,17.50
2023-03-29T19:09:07.494Z,19.43
2023-03-29T19:11:36.777Z,23.97
2023-03-29T19:14:04.392Z,17.33
2023-03-29T19:16:31.229Z,22.10
2023-03-29T19:19:07.179Z,20.53
2023-03-29T19:21:34.601Z,16.80
2023-03-29T19:24:05.029Z,19.13
2023-03-29T19:26:46.036Z,22.10
2023-03-29T19:29:15.988Z,19.43
2023-03-29T19:31:43.165Z,16.00
2023-03-29T19:34:11.076Z,21.30
2023-03-29T19:36:39.553Z,22.13
2023-03-29T19:39:07.113Z,16.93
2023-03-29T19:41:41.892Z,19.83
2023-03-29T19:44:08.727Z,17.57
2023-03-29T19:46:35.797Z,19.40
2023-03-29T19:49:05.699Z,24.60
2023-03-29T19:51:32.737Z,19.27
2023-03-29T19:53:59.441Z,17.37
2023-03-29T19:56:28.920Z,17.70
2023-03-29T19:59:02.316Z,19.80
2023-03-29T20:01:32.595Z,17.50
2023-03-29T20:04:09.999Z,17.70
2023-03-29T20:06:37.216Z,18.60
2023-03-29T20:09:07.658Z,16.47
2023-03-29T20:12:03.483Z,15.53
2023-03-29T20:14:34.375Z,16.77
2023-03-29T20:17:40.953Z,13.07
2023-03-29T20:20:10.314Z,16.93
2023-03-29T20:22:42.293Z,20.33
2023-03-29T20:25:09.602Z,18.77
2023-03-29T20:27:48.878Z,12.87
2023-03-29T20:30:24.699Z,11.20
2023-03-29T20:32:54.563Z,11.17
2023-03-29T20:35:24.629Z,14.20
2023-03-29T20:37:52.371Z,13.57
2023-03-29T20:40:29.925Z,12.10
2023-03-29T20:42:56.780Z,13.17
2023-03-29T20:45:23.404Z,13.23
2023-03-29T20:48:02.021Z,11.43
2023-03-29T20:50:29.269Z,12.97
2023-03-29T20:52:56.896Z,11.20
2023-03-29T20:55:24.154Z,14.17
2023-03-29T20:57:54.063Z,11.10
2023-03-29T21:00:21.042Z,13.63
2023-03-29T21:02:56.183Z,8.73
2023-03-29T21:05:23.268Z,10.97
2023-03-29T21:07:49.909Z,9.97
2023-03-29T21:10:36.606Z,9.10
2023-03-29T21:13:10.399Z,9.87
2023-03-29T21:15:38.064Z,12.93
2023-03-29T21:18:05.370Z,9.83
2023-03-29T21:20:32.344Z,10.57
2023-03-29T21:22:59.009Z,9.73
2023-03-29T21:25:28.904Z,10.50
2023-03-29T21:27:55.668Z,8.00
2023-03-29T21:30:22.338Z,10.67
2023-03-29T21:32:51.463Z,10.17
2023-03-29T21:35:21.405Z,11.03
2023-03-29T21:37:48.201Z,11.07
2023-03-29T21:40:27.127Z,11.00
2023-03-29T21:42:53.817Z,9.07
2023-03-29T21:45:23.666Z,12.13
2023-03-29T21:47:50.528Z,9.53
2023-03-29T21:50:19.862Z,9.80
2023-03-29T21:52:49.121Z,8.83
2023-03-29T21:55:16.024Z,10.30
2023-03-29T21:57:42.672Z,9.77
2023-03-29T22:00:11.320Z,7.93
2023-03-29T22:02:41.612Z,8.23
2023-03-29T22:05:08.646Z,7.67
2023-03-29T22:07:38.750Z,6.20
2023-03-29T22:10:11.467Z,9.03
2023-03-29T22:12:39.080Z,8.60
2023-03-29T22:15:06.619Z,7.03
2023-03-29T22:17:33.726Z,10.97
2023-03-29T22:20:00.410Z,10.57
2023-03-29T22:22:29.356Z,8.50
2023-03-29T22:24:56.119Z,9.30
2023-03-29T22:27:23.432Z,8.10
2023-03-29T22:29:50.369Z,11.70
2023-03-29T22:32:17.162Z,9.50
2023-03-29T22:34:43.888Z,11.00
2023-03-29T22:37:10.944Z,12.07
2023-03-29T22:39:37.666Z,8.93
2023-03-29T22:42:07.299Z,8.33
2023-03-29T22:44:34.053Z,9.20
2023-03-29T22:47:01.098Z,7.00
2023-03-29T22:49:30.930Z,9.60
2023-03-29T22:51:59.738Z,13.03
2023-03-29T22:54:34.054Z,7.03
2023-03-29T22:57:04.338Z,14.70
2023-03-29T22:59:31.110Z,8.63
2023-03-29T23:02:00.349Z,9.50
2023-03-29T23:04:36.629Z,7.53
2023-03-29T23:07:03.385Z,9.33
2023-03-29T23:09:32.879Z,7.67
2023-03-29T23:12:02.623Z,17.20
2023-03-29T23:14:32.016Z,9.40
2023-03-29T23:17:01.488Z,6.47
2023-03-29T23:19:35.935Z,7.30
2023-03-29T23:22:02.661Z,6.67
2023-03-29T23:24:32.383Z,7.00
2023-03-29T23:27:08.212Z,8.80
2023-03-29T23:29:37.836Z,5.13
2023-03-29T23:32:04.531Z,10.07
2023-03-29T23:34:39.573Z,8.10
2023-03-29T23:37:06.268Z,9.43
2023-03-29T23:39:33.710Z,7.30
2023-03-29T23:42:07.982Z,5.93
2023-03-29T23:44:34.762Z,6.00
2023-03-29T23:47:01.681Z,6.30
2023-03-29T23:49:30.698Z,6.50
2023-03-29T23:52:05.353Z,7.13
2023-03-29T23:54:32.126Z,6.27
2023-03-29T23:57:01.329Z,9.43
2023-03-29T23:59:30.581Z,6.23
